Time;durP1;ratioP1;P1;durP2;ratioP2;P2;SDS_P1;SDS_P2;PMS_P1;PMS_P2;Temp;Humidity;BMP_temperature;BMP_pressure;BME280_temperature;BME280_humidity;BME280_pressure;Samples;Min_cycle;Max_cycle;Signal;HPM_P1;HPM_P2
2022/10/22 00:02:18;;;;;;;3.83;1.72;;;;;;;2.58;100.00;101298.08;1701678;84;21037;-57
2022/10/22 00:04:47;;;;;;;3.80;2.12;;;;;;;2.65;100.00;101300.59;1665186;85;21019;-58
2022/10/22 00:07:14;;;;;;;3.92;2.05;;;;;;;2.72;100.00;101291.13;1645754;85;21690;-58
2022/10/22 00:09:43;;;;;;;5.10;2.33;;;;;;;2.78;100.00;101295.87;1680196;85;20969;-58
2022/10/22 00:12:11;;;;;;;4.75;2.30;;;;;;;2.80;100.00;101287.55;1646064;87;21007;-58
2022/10/22 00:14:38;;;;;;;5.17;2.98;;;;;;;2.86;100.00;101286.67;1680054;85;21511;-57
2022/10/22 00:17:05;;;;;;;5.53;2.62;;;;;;;2.87;100.00;101283.16;1645759;85;21086;-58
2022/10/22 00:19:34;;;;;;;4.65;2.45;;;;;;;2.88;100.00;101277.56;1679996;85;21243;-58
2022/10/22 00:22:04;;;;;;;5.47;2.30;;;;;;;2.85;100.00;101282.45;1646008;87;20965;-58
2022/10/22 00:24:32;;;;;;;5.33;3.27;;;;;;;2.77;100.00;101284.75;1680048;84;21044;-58
2022/10/22 00:26:59;;;;;;;7.45;3.15;;;;;;;2.70;100.00;101278.85;1646321;87;21481;-61
2022/10/22 00:29:26;;;;;;;6.12;2.77;;;;;;;2.61;100.00;101269.99;1679621;85;21048;-58
2022/10/22 00:31:53;;;;;;;5.17;2.47;;;;;;;2.51;100.00;101265.97;1645993;87;21758;-58
2022/10/22 00:34:21;;;;;;;5.80;2.92;;;;;;;2.43;100.00;101268.25;1680116;85;20954;-58
2022/10/22 00:36:50;;;;;;;6.15;3.22;;;;;;;2.32;100.00;101268.98;1646179;87;20970;-58
2022/10/22 00:39:18;;;;;;;5.92;3.22;;;;;;;2.19;100.00;101268.15;1679772;85;20977;-61
2022/10/22 00:41:46;;;;;;;5.92;3.25;;;;;;;2.08;100.00;101265.48;1646234;87;21485;-58
2022/10/22 00:45:04;;;;;;;6.15;3.62;;;;;;;1.96;100.00;101274.84;1680251;84;22422;-59
2022/10/22 00:48:06;;;;;;;7.00;3.58;;;;;;;1.81;100.00;101273.28;1646101;87;20880;-59
2022/10/22 00:50:43;;;;;;;4.97;2.95;;;;;;;1.63;100.00;101271.02;1680031;85;21034;-58
2022/10/22 00:53:13;;;;;;;6.45;3.20;;;;;;;1.50;100.00;101267.59;1618188;87;20919;-58
2022/10/22 00:55:42;;;;;;;7.58;3.62;;;;;;;1.41;100.00;101273.33;1680147;85;21450;-58
2022/10/22 00:58:09;;;;;;;4.87;2.67;;;;;;;1.34;100.00;101274.64;1645679;87;21250;-66
2022/10/22 01:00:36;;;;;;;5.12;3.17;;;;;;;1.28;100.00;101280.16;1652934;85;21421;-60
2022/10/22 01:03:03;;;;;;;5.60;3.30;;;;;;;1.22;100.00;101281.39;1646030;87;21115;-58
2022/10/22 01:05:34;;;;;;;5.55;3.08;;;;;;;1.15;100.00;101279.66;1654656;85;20988;-61
2022/10/22 01:08:02;;;;;;;6.05;3.30;;;;;;;1.09;100.00;101272.34;1640705;87;21012;-63
2022/10/22 01:10:56;;;;;;;5.97;3.47;;;;;;;1.03;100.00;101270.64;1646003;87;21491;-58
2022/10/22 01:13:59;;;;;;;5.92;2.98;;;;;;;0.99;100.00;101276.89;1616345;85;20956;-58
2022/10/22 01:16:37;;;;;;;6.00;2.98;;;;;;;0.90;100.00;101277.80;1646133;87;20996;-59
2022/10/22 01:19:24;;;;;;;5.03;3.02;;;;;;;0.84;100.00;101281.23;1669357;85;21064;-71
2022/10/22 01:21:57;;;;;;;5.22;3.30;;;;;;;0.79;100.00;101281.95;1646008;87;21121;-58
2022/10/22 01:24:39;;;;;;;6.12;3.37;;;;;;;0.78;100.00;101276.00;1669569;85;21490;-58
2022/10/22 01:27:17;;;;;;;6.25;3.72;;;;;;;0.81;100.00;101274.53;1645285;87;20997;-58
2022/10/22 01:30:04;;;;;;;6.17;3.40;;;;;;;0.84;100.00;101275.62;1668956;85;20989;-58
2022/10/22 01:32:40;;;;;;;6.35;3.55;;;;;;;0.86;100.00;101283.22;1645612;87;21146;-60
2022/10/22 01:35:09;;;;;;;6.45;3.50;;;;;;;0.88;100.00;101281.40;1669632;85;21496;-59
2022/10/22 01:37:42;;;;;;;6.80;3.80;;;;;;;0.94;100.00;101284.84;1645822;87;21261;-58
2022/10/22 01:40:10;;;;;;;6.47;3.80;;;;;;;0.99;100.00;101281.55;1668970;85;21062;-58
2022/10/22 01:42:38;;;;;;;6.97;3.72;;;;;;;1.03;100.00;101284.75;1645631;87;21016;-68
2022/10/22 01:45:12;;;;;;;7.75;4.50;;;;;;;1.06;100.00;101278.97;1669201;85;21162;-59
2022/10/22 01:47:48;;;;;;;8.75;5.37;;;;;;;1.13;100.00;101287.09;1646042;87;21091;-58
2022/10/22 01:50:29;;;;;;;10.43;5.70;;;;;;;1.22;100.00;101281.39;1669106;85;21818;-58
2022/10/22 01:53:22;;;;;;;6.03;4.33;;;;;;;1.31;100.00;101288.50;1646187;87;21130;-57
2022/10/22 01:56:04;;;;;;;8.05;4.58;;;;;;;1.38;100.00;101284.62;1669260;85;21004;-61
2022/10/22 01:58:39;;;;;;;11.48;5.45;;;;;;;1.45;100.00;101288.91;1645969;87;20984;-58
2022/10/22 02:01:45;;;;;;;9.25;5.65;;;;;;;1.50;100.00;101288.14;1669474;85;20993;-58
2022/10/22 02:04:26;;;;;;;10.28;5.60;;;;;;;1.54;100.00;101288.77;1650426;85;21265;-57
2022/10/22 02:06:56;;;;;;;11.40;6.22;;;;;;;1.56;100.00;101274.91;1717122;83;21525;-69
2022/10/22 02:09:23;;;;;;;11.63;6.37;;;;;;;1.57;100.00;101271.41;1716402;82;20995;-58
2022/10/22 02:11:52;;;;;;;11.00;6.75;;;;;;;1.57;100.00;101279.12;1716422;82;21043;-57
2022/10/22 02:14:21;;;;;;;9.23;5.92;;;;;;;1.58;100.00;101279.94;1716871;83;20932;-58
2022/10/22 02:16:49;;;;;;;11.20;6.00;;;;;;;1.57;100.00;101284.26;1716708;83;21319;-58
2022/10/22 02:19:40;;;;;;;11.03;7.28;;;;;;;1.57;100.00;101284.72;1716661;82;21505;-69
2022/10/22 02:22:07;;;;;;;13.48;7.87;;;;;;;1.56;100.00;101282.62;1717108;83;21002;-59
2022/10/22 02:24:35;;;;;;;12.28;7.50;;;;;;;1.55;100.00;101282.70;1716715;83;21011;-60
2022/10/22 02:27:29;;;;;;;11.68;7.05;;;;;;;1.56;100.00;101280.05;1716931;83;20924;-69
2022/10/22 02:30:15;;;;;;;11.43;6.75;;;;;;;1.55;100.00;101289.94;1715650;83;21265;-58
2022/10/22 02:32:49;;;;;;;9.28;6.45;;;;;;;1.54;100.00;101294.73;1716619;82;20991;-59
2022/10/22 02:35:21;;;;;;;9.00;6.08;;;;;;;1.55;100.00;101298.94;1716859;82;21526;-58
2022/10/22 02:37:48;;;;;;;10.78;6.47;;;;;;;1.54;100.00;101301.62;1717011;82;21047;-58
2022/10/22 02:40:16;;;;;;;12.68;7.40;;;;;;;1.53;100.00;101305.11;1716709;83;20987;-58
2022/10/22 02:42:43;;;;;;;11.78;7.20;;;;;;;1.53;100.00;101303.37;1716465;82;21254;-67
2022/10/22 02:45:11;;;;;;;11.95;7.37;;;;;;;1.56;100.00;101305.74;1665610;83;21042;-58
2022/10/22 02:47:38;;;;;;;14.53;8.20;;;;;;;1.55;100.00;101312.25;1716784;83;20900;-58
2022/10/22 02:50:06;;;;;;;13.20;7.70;;;;;;;1.53;100.00;101315.39;1717015;83;20968;-58
2022/10/22 02:52:34;;;;;;;13.22;7.20;;;;;;;1.53;100.00;101314.92;1716717;82;20979;-58
2022/10/22 02:55:02;;;;;;;13.38;7.62;;;;;;;1.54;100.00;101313.18;1716051;82;22406;-60
2022/10/22 02:57:29;;;;;;;11.33;7.12;;;;;;;1.53;100.00;101313.64;1716792;83;21118;-58
2022/10/22 02:59:56;;;;;;;9.33;6.15;;;;;;;1.51;100.00;101315.94;1716630;83;21043;-58
2022/10/22 03:02:24;;;;;;;10.63;6.70;;;;;;;1.48;100.00;101315.70;1716652;83;21006;-60
2022/10/22 03:04:51;;;;;;;9.75;6.20;;;;;;;1.44;100.00;101312.96;1711780;82;21000;-58
2022/10/22 03:07:18;;;;;;;9.43;6.25;;;;;;;1.40;100.00;101314.05;1700298;83;21653;-59
2022/10/22 03:09:46;;;;;;;10.88;5.78;;;;;;;1.39;100.00;101309.84;1700976;83;21640;-59
2022/10/22 03:12:13;;;;;;;10.72;6.10;;;;;;;1.35;100.00;101313.06;1701053;83;20977;-58
2022/10/22 03:14:41;;;;;;;10.90;6.87;;;;;;;1.32;100.00;101311.97;1700898;84;21046;-58
2022/10/22 03:17:08;;;;;;;11.53;6.78;;;;;;;1.24;100.00;101312.09;1700967;84;20937;-60
2022/10/22 03:19:35;;;;;;;12.05;6.95;;;;;;;1.15;100.00;101317.36;1700799;83;21606;-58
2022/10/22 03:22:16;;;;;;;11.48;6.62;;;;;;;1.08;100.00;101314.81;1700916;83;21036;-58
2022/10/22 03:24:45;;;;;;;12.50;6.92;;;;;;;1.01;100.00;101313.08;1701439;84;20941;-58
2022/10/22 03:27:14;;;;;;;11.90;6.97;;;;;;;0.91;100.00;101317.97;1700407;84;21811;-58
2022/10/22 03:29:41;;;;;;;13.50;8.00;;;;;;;0.85;100.00;101318.34;1700991;83;22063;-58
2022/10/22 03:32:08;;;;;;;13.70;8.83;;;;;;;0.83;100.00;101321.44;1700605;84;21293;-58
2022/10/22 03:34:35;;;;;;;15.30;8.73;;;;;;;0.88;100.00;101325.03;1700810;84;20964;-58
2022/10/22 03:37:03;;;;;;;14.03;8.50;;;;;;;0.90;100.00;101332.17;1701109;84;20993;-69
2022/10/22 03:39:32;;;;;;;17.95;9.05;;;;;;;0.92;100.00;101331.63;1700264;84;21124;-59
2022/10/22 03:41:59;;;;;;;13.28;9.80;;;;;;;0.94;100.00;101333.62;1701574;83;21122;-58
2022/10/22 03:44:26;;;;;;;14.03;8.95;;;;;;;0.96;100.00;101333.91;1700925;84;22205;-59
2022/10/22 03:46:54;;;;;;;13.20;8.93;;;;;;;1.02;100.00;101334.44;1701027;84;21096;-58
2022/10/22 03:49:22;;;;;;;15.25;9.60;;;;;;;1.04;100.00;101336.47;1700616;83;20965;-68
2022/10/22 03:51:50;;;;;;;11.83;7.72;;;;;;;1.04;100.00;101330.86;1700650;84;20968;-58
2022/10/22 03:54:17;;;;;;;14.33;9.43;;;;;;;1.06;100.00;101328.19;1701004;84;21086;-57
2022/10/22 03:56:45;;;;;;;14.33;8.63;;;;;;;1.08;100.00;101336.63;1700715;83;21250;-58
2022/10/22 03:59:13;;;;;;;14.07;8.40;;;;;;;1.10;100.00;101331.78;1700875;83;21062;-58
2022/10/22 04:01:42;;;;;;;17.40;9.28;;;;;;;1.09;100.00;101331.86;1700304;83;21039;-58
2022/10/22 04:04:10;;;;;;;15.53;8.93;;;;;;;1.09;100.00;101333.96;1701008;84;21265;-58
2022/10/22 04:06:38;;;;;;;16.50;9.80;;;;;;;1.08;100.00;101340.02;1710341;82;20944;-59
2022/10/22 04:09:06;;;;;;;15.48;9.15;;;;;;;1.09;100.00;101336.99;1711103;83;21126;-58
2022/10/22 04:11:34;;;;;;;17.82;9.50;;;;;;;1.08;100.00;101331.50;1710461;83;21518;-57
2022/10/22 04:14:01;;;;;;;13.18;8.20;;;;;;;1.04;100.00;101332.14;1711160;83;21042;-57
2022/10/22 04:16:31;;;;;;;15.65;8.48;;;;;;;1.00;100.00;101337.11;1710995;83;21078;-57
2022/10/22 04:18:58;;;;;;;14.65;9.45;;;;;;;1.01;100.00;101330.23;1710960;83;21000;-59
2022/10/22 04:21:26;;;;;;;14.50;9.05;;;;;;;1.05;100.00;101332.97;1711074;83;21153;-59
2022/10/22 04:23:52;;;;;;;13.70;8.90;;;;;;;1.10;100.00;101339.48;1710411;83;20940;-59
2022/10/22 04:26:20;;;;;;;13.68;9.00;;;;;;;1.17;100.00;101339.91;1711264;83;21877;-58
2022/10/22 04:28:48;;;;;;;13.10;9.10;;;;;;;1.24;100.00;101333.93;1711285;83;21500;-59
2022/10/22 04:31:20;;;;;;;14.33;9.43;;;;;;;1.32;100.00;101340.23;1710977;83;35610;-58
2022/10/22 04:33:54;;;;;;;13.93;8.68;;;;;;;1.42;100.00;101343.05;1710755;83;21710;-59
2022/10/22 04:36:21;;;;;;;14.60;9.28;;;;;;;1.55;100.00;101343.91;1711050;83;21371;-58
2022/10/22 04:38:58;;;;;;;13.55;8.38;;;;;;;1.75;100.00;101350.83;1711132;83;21075;-59
2022/10/22 04:41:33;;;;;;;15.13;9.90;;;;;;;1.97;100.00;101350.23;1710836;83;21059;-58
2022/10/22 04:44:01;;;;;;;16.05;9.30;;;;;;;2.20;100.00;101352.13;1710990;83;20940;-61
2022/10/22 04:46:30;;;;;;;14.68;8.65;;;;;;;2.48;100.00;101350.28;1711128;83;21158;-59
2022/10/22 04:48:57;;;;;;;14.38;8.48;;;;;;;2.72;100.00;101349.88;1710959;83;21604;-58
2022/10/22 04:51:27;;;;;;;14.07;8.75;;;;;;;2.98;100.00;101348.55;1711158;83;20948;-58
2022/10/22 04:53:55;;;;;;;14.28;8.05;;;;;;;3.20;100.00;101346.59;1710842;83;20955;-59
2022/10/22 04:56:26;;;;;;;14.47;8.80;;;;;;;3.43;100.00;101356.08;1711118;83;21196;-58
2022/10/22 04:59:00;;;;;;;12.90;8.18;;;;;;;3.59;100.00;101347.59;1711159;83;21225;-59
2022/10/22 05:01:36;;;;;;;13.03;8.13;;;;;;;3.76;100.00;101359.27;1710278;83;20983;-58
2022/10/22 05:04:04;;;;;;;11.22;7.40;;;;;;;3.97;100.00;101354.75;1711120;83;21057;-59
2022/10/22 05:06:32;;;;;;;13.22;8.45;;;;;;;4.14;100.00;101353.87;1703667;83;21005;-58
2022/10/22 05:09:01;;;;;;;13.93;7.97;;;;;;;4.26;100.00;101358.58;1701060;84;20936;-58
2022/10/22 05:11:33;;;;;;;12.75;8.28;;;;;;;4.35;100.00;101364.80;1701038;84;21139;-59
2022/10/22 05:14:02;;;;;;;12.18;8.05;;;;;;;4.35;100.00;101364.33;1701012;84;21010;-58
2022/10/22 05:16:31;;;;;;;16.10;9.80;;;;;;;4.35;100.00;101360.46;1701218;84;21141;-58
2022/10/22 05:18:59;;;;;;;12.98;9.00;;;;;;;4.38;100.00;101364.11;1701520;83;21474;-58
2022/10/22 05:21:28;;;;;;;13.88;8.78;;;;;;;4.57;100.00;101364.83;1700723;83;21028;-68
2022/10/22 05:23:58;;;;;;;15.15;8.95;;;;;;;4.85;100.00;101366.61;1700859;83;21140;-58
2022/10/22 05:26:25;;;;;;;17.52;10.95;;;;;;;5.21;100.00;101363.38;1701066;84;21616;-59
2022/10/22 05:28:53;;;;;;;12.90;9.03;;;;;;;5.70;100.00;101358.16;1701195;84;20968;-59
2022/10/22 05:31:20;;;;;;;12.50;8.57;;;;;;;6.42;100.00;101355.66;1701072;83;21570;-58
2022/10/22 05:33:47;;;;;;;11.50;8.47;;;;;;;7.26;100.00;101355.38;1700583;83;21208;-59
2022/10/22 05:36:17;;;;;;;14.97;9.00;;;;;;;7.91;100.00;101357.78;1701260;84;21202;-58
2022/10/22 05:38:46;;;;;;;14.20;10.50;;;;;;;8.64;100.00;101355.45;1701068;83;21064;-59
2022/10/22 05:41:20;;;;;;;15.03;11.50;;;;;;;8.64;100.00;101355.45;1701249;84;21404;-58
2022/10/22 05:43:48;;;;;;;14.63;10.70;;;;;;;8.86;100.00;101358.13;1701049;83;22661;-58
2022/10/22 05:46:20;;;;;;;13.90;9.97;;;;;;;9.06;100.00;101360.66;1701309;84;21683;-57
2022/10/22 05:48:58;;;;;;;12.53;8.63;;;;;;;9.38;100.00;101362.27;1701223;83;21631;-59
2022/10/22 05:51:28;;;;;;;12.27;8.87;;;;;;;9.63;100.00;101367.72;1700878;83;20987;-60
2022/10/22 05:53:57;;;;;;;11.73;9.53;;;;;;;9.88;100.00;101374.74;1701327;84;21050;-60
2022/10/22 05:56:25;;;;;;;11.23;8.83;;;;;;;10.16;100.00;101370.73;1701103;84;20948;-58
2022/10/22 05:58:52;;;;;;;13.60;10.73;;;;;;;10.67;100.00;101375.59;1701390;83;21486;-59
2022/10/22 06:01:23;;;;;;;14.87;11.77;;;;;;;11.22;100.00;101368.63;1700901;83;21852;-61
2022/10/22 06:03:56;;;;;;;15.57;13.27;;;;;;;11.76;100.00;101369.01;1701044;83;21007;-58
2022/10/22 06:06:28;;;;;;;13.17;10.43;;;;;;;11.97;100.00;101370.33;1706591;83;21434;-58
2022/10/22 06:08:56;;;;;;;11.47;9.50;;;;;;;11.83;100.00;101364.80;1711423;82;20940;-58
2022/10/22 06:11:23;;;;;;;12.43;9.13;;;;;;;11.52;100.00;101369.82;1711041;83;20928;-67
2022/10/22 06:13:50;;;;;;;13.27;8.93;;;;;;;11.23;100.00;101361.61;1711179;83;21314;-58
2022/10/22 06:16:17;;;;;;;9.93;7.20;;;;;;;11.14;100.00;101366.00;1711292;83;20964;-57
2022/10/22 06:18:47;;;;;;;11.27;7.87;;;;;;;11.12;100.00;101368.75;1711401;83;21557;-58
2022/10/22 06:21:15;;;;;;;11.37;8.17;;;;;;;11.16;100.00;101365.34;1711062;83;20980;-59
2022/10/22 06:23:43;;;;;;;10.70;8.10;;;;;;;11.30;100.00;101370.44;1710983;83;20892;-62
2022/10/22 06:26:11;;;;;;;10.27;7.80;;;;;;;11.49;100.00;101374.55;1711372;83;21146;-59
2022/10/22 06:28:38;;;;;;;11.33;7.30;;;;;;;11.62;100.00;101378.79;1711277;83;21012;-58
2022/10/22 06:31:06;;;;;;;9.17;6.77;;;;;;;11.73;100.00;101377.16;1711154;83;20932;-58
2022/10/22 06:33:36;;;;;;;8.20;6.83;;;;;;;11.84;100.00;101386.02;1710848;83;21018;-66
2022/10/22 06:36:13;;;;;;;8.87;6.70;;;;;;;11.99;100.00;101378.34;1711115;83;21766;-58
2022/10/22 06:38:41;;;;;;;6.67;5.23;;;;;;;12.27;100.00;101374.05;1711141;83;21874;-59
2022/10/22 06:41:11;;;;;;;7.70;4.87;;;;;;;12.60;100.00;101369.55;1711227;83;21505;-57
2022/10/22 06:43:38;;;;;;;5.97;4.50;;;;;;;12.74;100.00;101375.39;1710732;83;21509;-61
2022/10/22 06:46:08;;;;;;;6.27;4.20;;;;;;;12.76;100.00;101374.71;1711007;83;21062;-58
2022/10/22 06:48:36;;;;;;;7.93;4.67;;;;;;;12.73;100.00;101376.84;1711317;83;21030;-57
2022/10/22 06:51:09;;;;;;;6.77;4.80;;;;;;;12.72;100.00;101373.42;1711240;83;21153;-57
2022/10/22 06:53:37;;;;;;;6.73;4.80;;;;;;;12.77;100.00;101378.98;1710616;83;21145;-58
2022/10/22 06:56:11;;;;;;;6.90;4.17;;;;;;;12.86;100.00;101379.25;1711325;83;21588;-57
2022/10/22 06:58:38;;;;;;;6.43;4.90;;;;;;;12.83;100.00;101377.47;1711175;83;21052;-58
2022/10/22 07:01:13;;;;;;;7.27;5.07;;;;;;;12.77;100.00;101380.28;1711199;83;20944;-57
2022/10/22 07:03:40;;;;;;;6.80;4.90;;;;;;;12.62;100.00;101377.56;1710911;83;21797;-60
2022/10/22 07:06:10;;;;;;;8.00;4.90;;;;;;;12.87;100.00;101371.72;1711063;83;21475;-57
2022/10/22 07:08:37;;;;;;;6.93;5.00;;;;;;;13.13;100.00;101369.31;1711110;83;21130;-58
2022/10/22 07:11:07;;;;;;;6.90;4.87;;;;;;;13.40;100.00;101365.41;1711257;83;20936;-58
2022/10/22 07:13:35;;;;;;;8.67;5.57;;;;;;;13.79;100.00;101365.78;1710762;83;20916;-59
2022/10/22 07:16:03;;;;;;;7.07;5.07;;;;;;;14.26;100.00;101361.55;1711398;83;21272;-57
2022/10/22 07:18:32;;;;;;;7.40;5.23;;;;;;;14.71;100.00;101362.89;1711168;83;21510;-58
2022/10/22 07:21:01;;;;;;;7.53;5.43;;;;;;;14.97;100.00;101357.96;1711203;83;20948;-58
2022/10/22 07:23:29;;;;;;;6.80;4.87;;;;;;;15.14;92.87;101360.35;1711105;83;21062;-65
2022/10/22 07:25:57;;;;;;;7.10;5.20;;;;;;;15.20;87.76;101364.88;1711052;83;20928;-60
2022/10/22 07:28:26;;;;;;;6.47;5.13;;;;;;;15.11;85.85;101357.59;1711107;83;21200;-58
2022/10/22 07:30:53;;;;;;;6.67;5.33;;;;;;;15.11;84.46;101361.52;1711166;83;20932;-58
2022/10/22 07:33:21;;;;;;;5.77;4.73;;;;;;;15.13;83.12;101361.36;1711158;83;20947;-58
2022/10/22 07:35:48;;;;;;;6.53;4.97;;;;;;;15.20;82.88;101357.80;1710998;83;21073;-65
2022/10/22 07:38:15;;;;;;;7.63;5.83;;;;;;;15.21;80.14;101355.48;1711077;83;21589;-58
2022/10/22 07:40:43;;;;;;;6.23;4.60;;;;;;;15.12;81.82;101359.23;1711145;83;21245;-58
2022/10/22 07:43:11;;;;;;;6.80;4.80;;;;;;;15.00;78.11;101359.37;1711173;83;20943;-58
2022/10/22 07:45:39;;;;;;;6.23;4.70;;;;;;;14.78;80.28;101360.66;1711135;83;21552;-59
2022/10/22 07:48:07;;;;;;;5.80;4.87;;;;;;;14.55;79.72;101359.47;1711001;83;21518;-58
2022/10/22 07:50:34;;;;;;;6.47;5.17;;;;;;;14.35;82.11;101355.22;1711143;83;21501;-59
2022/10/22 07:53:01;;;;;;;7.63;5.73;;;;;;;14.31;82.59;101356.58;1711084;83;21892;-58
2022/10/22 07:55:28;;;;;;;6.20;4.80;;;;;;;14.18;83.45;101360.33;1711173;83;20947;-59
2022/10/22 07:57:55;;;;;;;9.37;6.20;;;;;;;14.14;83.63;101364.31;1711255;83;20869;-58
2022/10/22 08:00:22;;;;;;;7.57;5.03;;;;;;;14.07;85.75;101363.39;1710958;83;20983;-59
2022/10/22 08:02:49;;;;;;;6.73;5.43;;;;;;;14.08;85.19;101363.70;1711335;83;21925;-58
2022/10/22 08:05:16;;;;;;;7.40;6.03;;;;;;;14.11;83.94;101365.97;1711295;83;22532;-58
2022/10/22 08:07:44;;;;;;;7.03;5.60;;;;;;;14.15;86.77;101362.00;1702777;83;20885;-58
2022/10/22 08:10:11;;;;;;;7.83;5.63;;;;;;;14.29;86.39;101355.14;1701092;83;20896;-58
2022/10/22 08:12:39;;;;;;;7.00;5.33;;;;;;;14.44;83.41;101363.02;1700352;84;21048;-62
2022/10/22 08:15:09;;;;;;;7.17;4.70;;;;;;;14.61;83.32;101352.67;1701198;83;21463;-58
2022/10/22 08:17:37;;;;;;;8.43;5.23;;;;;;;14.80;80.09;101353.91;1700908;84;21237;-58
2022/10/22 08:20:05;;;;;;;10.27;8.60;;;;;;;14.95;77.76;101350.75;1701139;83;21039;-59
2022/10/22 08:22:34;;;;;;;7.70;5.77;;;;;;;15.14;75.79;101355.09;1700739;83;20987;-59
2022/10/22 08:25:02;;;;;;;7.23;5.20;;;;;;;15.32;73.47;101357.61;1701181;83;21466;-58
2022/10/22 08:27:30;;;;;;;8.13;5.80;;;;;;;15.51;70.04;101358.00;1701338;83;21004;-58
2022/10/22 08:29:57;;;;;;;10.57;6.67;;;;;;;15.73;70.03;101351.75;1701030;84;22174;-58
2022/10/22 08:32:24;;;;;;;12.60;7.33;;;;;;;16.01;69.36;101343.86;1700463;84;21562;-63
2022/10/22 08:34:52;;;;;;;10.27;6.47;;;;;;;16.45;68.07;101340.59;1700930;83;21300;-58
2022/10/22 08:37:19;;;;;;;7.37;5.83;;;;;;;16.91;67.51;101338.67;1701197;83;21067;-58
2022/10/22 08:39:46;;;;;;;8.53;5.97;;;;;;;17.32;63.29;101335.92;1701077;84;20972;-58
2022/10/22 08:43:03;;;;;;;7.23;5.70;;;;;;;17.60;61.71;101339.67;1701336;83;21795;-60
2022/10/22 08:45:40;;;;;;;7.10;5.60;;;;;;;17.78;59.95;101336.98;1701114;84;20988;-60
2022/10/22 08:48:33;;;;;;;9.53;6.50;;;;;;;17.92;58.75;101338.59;1645622;87;21028;-59
2022/10/22 08:51:01;;;;;;;9.10;7.10;;;;;;;17.99;56.48;101338.89;1701092;84;20948;-60
2022/10/22 08:53:50;;;;;;;7.63;6.50;;;;;;;17.91;55.71;101339.59;1700455;84;21063;-60
2022/10/22 08:56:17;;;;;;;10.73;6.77;;;;;;;17.80;55.11;101329.15;1701032;84;21267;-59
2022/10/22 08:58:59;;;;;;;10.63;7.73;;;;;;;17.71;55.18;101331.16;1700792;83;20885;-59
2022/10/22 09:01:38;;;;;;;9.03;7.03;;;;;;;17.61;55.71;101324.16;1631267;84;20983;-59
2022/10/22 09:04:47;;;;;;;10.53;7.80;;;;;;;17.50;56.38;101327.40;1700626;84;20976;-60
2022/10/22 09:07:15;;;;;;;12.10;8.43;;;;;;;17.37;56.65;101326.89;1706321;83;21379;-59
2022/10/22 09:09:46;;;;;;;10.50;8.57;;;;;;;17.13;56.84;101322.21;1711267;83;21159;-59
2022/10/22 09:12:15;;;;;;;12.88;10.43;;;;;;;16.88;57.96;101321.94;1682139;83;20936;-59
2022/10/22 09:14:45;;;;;;;11.30;8.47;;;;;;;16.81;60.46;101334.27;1710807;83;20940;-59
2022/10/22 09:18:00;;;;;;;8.38;6.45;;;;;;;16.88;60.66;101328.02;1711491;83;21613;-59
2022/10/22 09:20:39;;;;;;;8.33;6.87;;;;;;;16.99;60.62;101321.36;1711357;83;21074;-59
2022/10/22 09:23:37;;;;;;;7.97;6.30;;;;;;;17.17;60.10;101326.07;1680547;83;21811;-59
2022/10/22 09:26:14;;;;;;;9.13;6.80;;;;;;;17.32;59.74;101328.53;1711241;83;21652;-60
2022/10/22 09:28:43;;;;;;;8.50;6.60;;;;;;;17.44;58.85;101319.80;1711414;83;21482;-59
2022/10/22 09:31:11;;;;;;;7.80;6.50;;;;;;;17.60;59.14;101315.14;1711009;83;20948;-62
2022/10/22 09:33:39;;;;;;;8.20;6.20;;;;;;;17.81;58.17;101316.28;1711077;83;21047;-59
2022/10/22 09:36:08;;;;;;;7.13;5.87;;;;;;;17.88;56.29;101307.86;1711352;83;21155;-60
2022/10/22 09:38:48;;;;;;;10.00;7.33;;;;;;;17.78;55.81;101309.29;1681200;83;20964;-59
2022/10/22 09:41:16;;;;;;;7.55;5.92;;;;;;;17.57;55.96;101297.89;1710442;83;21052;-60
2022/10/22 09:43:47;;;;;;;10.90;7.90;;;;;;;17.53;58.86;101299.83;1681308;83;21586;-59
2022/10/22 09:46:20;;;;;;;8.00;6.20;;;;;;;17.82;58.75;101296.80;1711482;83;21035;-59
2022/10/22 09:49:02;;;;;;;8.97;7.20;;;;;;;18.16;58.91;101293.07;1711267;83;21185;-58
2022/10/22 09:51:59;;;;;;;26.27;21.20;;;;;;;18.47;57.40;101294.17;1676370;85;21075;-59
2022/10/22 09:54:41;;;;;;;11.30;8.40;;;;;;;18.54;55.40;101287.04;1711252;83;20969;-67
2022/10/22 09:57:21;;;;;;;8.43;6.37;;;;;;;18.47;55.98;101283.10;1711132;83;20991;-59
2022/10/22 09:59:50;;;;;;;7.37;5.90;;;;;;;18.30;55.56;101282.48;1711501;83;21055;-59
2022/10/22 10:02:20;;;;;;;7.07;5.80;;;;;;;18.16;56.60;101275.92;1711278;83;21153;-62
2022/10/22 10:04:51;;;;;;;8.23;6.67;;;;;;;18.07;57.17;101271.90;1711286;83;21051;-59
2022/10/22 10:07:22;;;;;;;10.38;6.20;;;;;;;17.91;57.46;101272.33;1711487;83;20971;-58
2022/10/22 10:09:50;;;;;;;8.40;5.95;;;;;;;17.66;57.57;101269.00;1711542;83;20930;-59
2022/10/22 10:12:38;;;;;;;9.73;5.43;;;;;;;17.32;57.78;101260.01;1711251;83;21000;-59
2022/10/22 10:15:39;;;;;;;11.80;8.07;;;;;;;16.95;60.34;101268.78;1711251;83;20959;-58
2022/10/22 10:18:30;;;;;;;7.23;5.20;;;;;;;16.66;61.07;101261.48;1710868;83;20896;-59
2022/10/22 10:21:10;;;;;;;7.13;5.20;;;;;;;16.17;62.70;101268.27;1711332;83;20864;-59
2022/10/22 10:24:15;;;;;;;5.78;4.12;;;;;;;15.79;66.71;101268.16;1710971;83;21446;-62
2022/10/22 10:27:04;;;;;;;7.53;4.50;;;;;;;15.50;70.64;101265.72;1711250;83;20975;-60
2022/10/22 10:30:02;;;;;;;7.27;4.33;;;;;;;15.22;75.71;101266.48;1711296;83;21218;-58
2022/10/22 10:32:47;;;;;;;12.40;9.73;;;;;;;15.04;80.30;101266.14;1711332;83;20979;-58
2022/10/22 10:35:25;;;;;;;7.53;5.10;;;;;;;14.95;84.72;101268.55;1711352;83;21038;-58
2022/10/22 10:38:02;;;;;;;8.53;5.93;;;;;;;14.84;85.39;101266.72;1710964;83;20861;-65
2022/10/22 10:40:55;;;;;;;7.93;4.57;;;;;;;14.75;89.59;101256.04;1711448;83;20991;-58
2022/10/22 10:43:39;;;;;;;7.70;5.07;;;;;;;14.65;90.51;101248.15;1657399;83;21925;-61
2022/10/22 10:46:23;;;;;;;9.10;5.83;;;;;;;14.52;95.52;101243.58;1646695;83;20971;-59
2022/10/22 10:48:57;;;;;;;7.73;5.40;;;;;;;14.43;96.54;101243.32;1711509;83;21046;-58
2022/10/22 10:51:47;;;;;;;8.70;6.20;;;;;;;14.35;96.74;101248.17;1711264;83;21470;-59
2022/10/22 10:54:43;;;;;;;11.20;5.57;;;;;;;14.19;98.02;101247.88;1645596;86;20944;-58
2022/10/22 10:57:52;;;;;;;6.63;5.20;;;;;;;14.04;100.00;101244.45;1711237;82;21166;-59
2022/10/22 11:00:21;;;;;;;6.17;4.67;;;;;;;13.96;100.00;101249.80;1711238;83;21014;-58
2022/10/22 11:03:16;;;;;;;7.03;4.60;;;;;;;13.83;100.00;101247.31;1711513;83;21000;-58
2022/10/22 11:06:02;;;;;;;8.60;5.50;;;;;;;13.82;100.00;101235.18;1710703;83;21426;-58
2022/10/22 11:08:31;;;;;;;8.77;6.00;;;;;;;13.86;100.00;101228.61;1703759;83;20976;-58
2022/10/22 11:11:22;;;;;;;8.93;4.40;;;;;;;13.95;100.00;101229.83;1679328;84;21243;-58
2022/10/22 11:13:58;;;;;;;7.97;3.80;;;;;;;13.94;100.00;101227.71;1668237;85;21083;-58
2022/10/22 11:16:43;;;;;;;6.40;3.37;;;;;;;13.86;100.00;101227.30;1655386;85;20985;-61
2022/10/22 11:19:28;;;;;;;9.03;3.70;;;;;;;13.91;100.00;101222.83;1646146;87;21083;-59
2022/10/22 11:22:04;;;;;;;8.33;4.00;;;;;;;14.02;100.00;101226.80;1669547;85;21026;-61
2022/10/22 11:25:15;;;;;;;12.90;6.20;;;;;;;14.23;100.00;101218.17;1647167;85;21593;-57
2022/10/22 11:27:55;;;;;;;7.83;4.40;;;;;;;14.36;100.00;101219.16;1640771;87;21027;-62
2022/10/22 11:30:24;;;;;;;8.55;4.65;;;;;;;14.39;100.00;101214.52;1645610;87;21341;-58
2022/10/22 11:32:56;;;;;;;7.83;4.60;;;;;;;14.31;100.00;101217.56;1669481;85;20968;-58
2022/10/22 11:35:26;;;;;;;8.33;4.87;;;;;;;14.39;100.00;101210.59;1646089;87;20941;-58
2022/10/22 11:37:54;;;;;;;5.47;2.87;;;;;;;14.48;100.00;101212.13;1669115;85;21071;-59
2022/10/22 11:40:38;;;;;;;4.97;3.10;;;;;;;14.59;100.00;101207.73;1646062;87;21615;-60
2022/10/22 11:43:13;;;;;;;6.67;3.50;;;;;;;14.67;100.00;101206.30;1669797;85;21614;-58
2022/10/22 11:45:42;;;;;;;11.30;6.20;;;;;;;14.67;100.00;101206.80;1643658;87;21028;-59
2022/10/22 11:48:16;;;;;;;6.67;3.60;;;;;;;14.61;98.64;101207.03;1669717;85;21456;-56